Terminal Aerodrome Forecast
Issued by NWS Charleston, WV

Current Version | Previous Version | Text Only | Print | Product List | Glossary Off
Versions: 1 2 3 4 5 6 7 8 9 10 11 12 13 14 15 16 17 18 19 20 21 22 23

000
FTUS41 KRLX 151700 RRA
TAFCRW
TAF
KCRW 151750Z 1518/1618 00000KT P6SM SCT015 BKN300
      TEMPO 1518/1520 BKN015
     FM152000 00000KT P6SM FEW015 BKN250
     FM160600 00000KT 4SM BR VCSH OVC050
     FM161200 VRB03KT P6SM VCSH OVC020
     FM161400 VRB03KT P6SM OVC015=

USA.gov is the U.S. government's official web portal to all federal, state and local government web resources and services.